createdAt,value
2019-04-29T00:00:47.924Z,68.30
2019-04-29T00:04:50.960Z,67.90
2019-04-29T00:08:55.797Z,67.50
2019-04-29T00:12:58.920Z,68.40
2019-04-29T00:17:19.872Z,67.70
2019-04-29T00:21:24.294Z,68.00
2019-04-29T00:25:27.251Z,67.40
2019-04-29T00:29:32.343Z,67.50
2019-04-29T00:33:35.199Z,67.10
2019-04-29T00:38:04.087Z,67.40
2019-04-29T00:42:26.767Z,67.60
2019-04-29T00:46:30.261Z,67.60
2019-04-29T00:50:33.123Z,67.70
2019-04-29T00:54:55.485Z,67.90
2019-04-29T00:58:58.375Z,68.00
2019-04-29T01:03:01.632Z,67.80
2019-04-29T01:07:06.247Z,67.70
2019-04-29T01:11:12.431Z,68.20
2019-04-29T01:15:15.496Z,68.20
2019-04-29T01:19:18.630Z,68.60
2019-04-29T01:23:21.693Z,68.70
2019-04-29T01:27:29.511Z,68.20
2019-04-29T01:31:32.741Z,68.60
2019-04-29T01:35:35.627Z,68.30
2019-04-29T01:39:46.143Z,68.30
2019-04-29T01:43:58.761Z,67.90
2019-04-29T01:48:03.658Z,68.20
2019-04-29T01:52:09.635Z,68.10
2019-04-29T01:56:12.631Z,68.10
2019-04-29T02:00:17.208Z,68.20
2019-04-29T02:04:20.227Z,68.20
2019-04-29T02:08:23.220Z,68.10
2019-04-29T02:12:28.245Z,68.30
2019-04-29T02:16:31.305Z,68.20
2019-04-29T02:20:34.318Z,68.60
2019-04-29T02:24:38.956Z,68.40
2019-04-29T02:28:42.076Z,68.30
2019-04-29T02:32:45.082Z,68.50
2019-04-29T02:36:49.682Z,68.50
2019-04-29T02:41:18.384Z,69.00
2019-04-29T02:45:28.704Z,69.00
2019-04-29T02:49:31.652Z,69.10
2019-04-29T02:53:34.750Z,69.10
2019-04-29T02:57:42.820Z,69.30
2019-04-29T03:01:58.355Z,70.20
2019-04-29T03:06:00.778Z,70.20
2019-04-29T03:10:03.921Z,70.90
2019-04-29T03:14:06.938Z,70.80
2019-04-29T03:18:10.257Z,70.30
2019-04-29T03:22:16.157Z,70.30
2019-04-29T03:26:20.028Z,70.30
2019-04-29T03:30:23.038Z,70.50
2019-04-29T03:34:26.481Z,70.30
2019-04-29T03:38:29.520Z,70.50
2019-04-29T03:42:32.524Z,71.10
2019-04-29T03:46:35.451Z,71.20
2019-04-29T03:50:38.429Z,71.70
2019-04-29T03:54:41.378Z,72.40
2019-04-29T03:58:47.762Z,73.10
2019-04-29T04:03:16.451Z,73.90
2019-04-29T04:07:47.787Z,73.20
2019-04-29T04:11:52.457Z,73.70
2019-04-29T04:15:55.547Z,74.10
2019-04-29T04:20:02.234Z,74.20
2019-04-29T04:24:05.183Z,74.60
2019-04-29T04:28:08.149Z,76.00
2019-04-29T04:32:12.886Z,75.70
2019-04-29T04:36:15.851Z,75.40
2019-04-29T04:40:26.675Z,75.20
2019-04-29T04:44:49.493Z,76.30
2019-04-29T04:48:52.604Z,76.20
2019-04-29T04:52:57.347Z,76.10
2019-04-29T04:57:00.310Z,76.30
2019-04-29T05:01:03.425Z,76.40
2019-04-29T05:05:08.295Z,76.50
2019-04-29T05:09:15.665Z,76.50
2019-04-29T05:13:27.276Z,76.90
2019-04-29T05:17:20.791Z,76.90
2019-04-29T05:21:23.788Z,77.00
2019-04-29T05:25:29.083Z,77.50
2019-04-29T05:29:32.101Z,78.60
2019-04-29T05:33:39.342Z,78.10
2019-04-29T05:37:49.059Z,78.10
2019-04-29T05:41:52.006Z,78.50
2019-04-29T05:46:08.424Z,78.70
2019-04-29T05:50:25.378Z,78.20
2019-04-29T05:54:31.606Z,78.20
2019-04-29T05:58:37.787Z,78.40
2019-04-29T06:02:41.200Z,78.60
2019-04-29T06:06:44.136Z,79.20
2019-04-29T06:10:47.073Z,79.10
2019-04-29T06:14:51.945Z,78.90
2019-04-29T06:19:00.103Z,79.00
2019-04-29T06:22:59.778Z,80.00
2019-04-29T06:27:02.741Z,79.40
2019-04-29T06:31:05.718Z,80.30
2019-04-29T06:35:14.198Z,79.70
2019-04-29T06:39:15.624Z,79.40
2019-04-29T06:43:18.610Z,79.60
2019-04-29T06:47:21.587Z,78.60
2019-04-29T06:51:24.553Z,78.50
2019-04-29T06:55:27.461Z,78.10
2019-04-29T06:59:33.174Z,79.00
2019-04-29T07:03:37.479Z,79.20
2019-04-29T07:07:40.413Z,78.60
2019-04-29T07:11:43.440Z,79.00
2019-04-29T07:15:47.754Z,79.30
2019-04-29T07:23:59.312Z,79.60
2019-04-29T07:28:02.267Z,79.20
2019-04-29T07:32:09.236Z,80.30
2019-04-29T07:36:11.449Z,80.80
2019-04-29T07:40:17.057Z,80.50
2019-04-29T07:44:20.062Z,80.00
2019-04-29T07:48:23.100Z,80.00
2019-04-29T07:52:26.280Z,79.20
2019-04-29T07:56:29.180Z,79.20
2019-04-29T08:00:35.611Z,80.60
2019-04-29T08:04:40.383Z,80.30
2019-04-29T08:08:54.207Z,80.20
2019-04-29T08:12:50.536Z,80.80
2019-04-29T08:16:55.400Z,81.00
2019-04-29T08:20:58.545Z,81.20
2019-04-29T08:25:01.573Z,79.80
2019-04-29T08:29:04.949Z,80.40
2019-04-29T08:33:11.941Z,80.30
2019-04-29T08:37:12.790Z,79.60
2019-04-29T08:41:15.707Z,79.60
2019-04-29T08:45:39.039Z,80.80
2019-04-29T08:49:41.406Z,80.50
2019-04-29T08:53:44.484Z,80.40
2019-04-29T08:57:47.610Z,80.30
2019-04-29T09:01:50.634Z,81.00
2019-04-29T09:06:05.028Z,80.70
2019-04-29T09:10:02.035Z,80.50
2019-04-29T09:14:03.248Z,80.40
2019-04-29T09:18:06.213Z,80.50
2019-04-29T09:22:11.150Z,80.30
2019-04-29T09:26:25.243Z,80.70
2019-04-29T09:30:28.670Z,81.00
2019-04-29T09:34:31.608Z,80.80
2019-04-29T09:38:36.791Z,80.50
2019-04-29T09:42:58.783Z,80.40
2019-04-29T09:47:04.132Z,80.30
2019-04-29T09:51:17.361Z,81.10
2019-04-29T09:55:11.554Z,81.70
2019-04-29T09:59:46.301Z,81.40
2019-04-29T10:04:07.618Z,80.90
2019-04-29T10:08:10.669Z,80.90
2019-04-29T10:12:13.849Z,80.00
2019-04-29T10:16:36.052Z,80.50
2019-04-29T10:20:45.694Z,79.60
2019-04-29T10:24:48.669Z,79.50
2019-04-29T10:28:56.595Z,80.00
2019-04-29T10:32:59.760Z,78.70
2019-04-29T10:37:04.668Z,78.90
2019-04-29T10:41:14.887Z,79.40
2019-04-29T10:45:40.733Z,77.60
2019-04-29T10:49:54.709Z,77.50
2019-04-29T10:53:57.804Z,76.90
2019-04-29T10:58:00.847Z,77.60
2019-04-29T11:02:35.122Z,77.70
2019-04-29T11:06:38.459Z,76.50
2019-04-29T11:10:41.558Z,74.60
2019-04-29T11:14:47.578Z,75.70
2019-04-29T11:18:55.065Z,75.20
2019-04-29T11:23:04.428Z,75.80
2019-04-29T11:27:26.582Z,70.90
2019-04-29T11:31:29.757Z,70.10
2019-04-29T11:35:40.689Z,68.90
2019-04-29T11:39:46.161Z,69.20
2019-04-29T11:43:51.088Z,68.10
2019-04-29T11:47:53.858Z,65.10
2019-04-29T11:52:09.183Z,64.80
2019-04-29T11:56:01.825Z,64.20
2019-04-29T12:00:32.216Z,59.70
2019-04-29T12:04:41.990Z,60.60
2019-04-29T12:08:48.237Z,62.40
2019-04-29T12:12:49.557Z,59.40
2019-04-29T12:17:10.650Z,56.20
2019-04-29T12:21:19.560Z,58.30
2019-04-29T12:25:23.033Z,59.10
2019-04-29T12:29:27.536Z,57.40
2019-04-29T12:33:44.268Z,56.80
2019-04-29T12:38:15.756Z,55.20
2019-04-29T12:42:40.175Z,52.10
2019-04-29T12:47:01.147Z,51.30
2019-04-29T12:51:04.253Z,50.20
2019-04-29T12:55:19.745Z,50.60
2019-04-29T12:59:13.146Z,49.80
2019-04-29T13:03:30.902Z,48.20
2019-04-29T13:07:51.519Z,49.20
2019-04-29T13:12:10.985Z,46.40
2019-04-29T13:16:20.623Z,46.50
2019-04-29T13:20:24.877Z,46.00
2019-04-29T13:24:28.258Z,45.70
2019-04-29T13:28:34.488Z,46.00
2019-04-29T13:32:36.271Z,42.90
2019-04-29T13:36:39.241Z,43.10
2019-04-29T13:40:42.291Z,42.10
2019-04-29T13:45:04.467Z,41.60
2019-04-29T13:49:21.735Z,40.90
2019-04-29T13:53:24.751Z,38.00
2019-04-29T13:57:27.760Z,37.70
2019-04-29T14:01:57.801Z,36.40
2019-04-29T14:05:43.031Z,37.20
2019-04-29T14:09:47.839Z,39.00
2019-04-29T14:13:50.878Z,37.70
2019-04-29T14:17:53.890Z,37.40
2019-04-29T14:21:57.000Z,39.40
2019-04-29T14:25:59.962Z,36.70
2019-04-29T14:30:07.816Z,34.10
2019-04-29T14:34:30.697Z,31.50
2019-04-29T14:38:35.925Z,31.70
2019-04-29T14:43:25.419Z,30.80
2019-04-29T14:47:35.325Z,29.30
2019-04-29T14:51:40.211Z,29.10
2019-04-29T14:55:43.195Z,30.40
2019-04-29T14:59:48.032Z,32.40
2019-04-29T15:03:54.518Z,34.30
2019-04-29T15:07:58.872Z,34.90
2019-04-29T15:12:12.498Z,37.50
2019-04-29T15:16:35.019Z,37.70
2019-04-29T15:20:43.549Z,38.90
2019-04-29T15:24:48.409Z,38.70
2019-04-29T15:28:56.391Z,40.30
2019-04-29T15:32:59.826Z,39.80
2019-04-29T15:37:05.565Z,38.90
2019-04-29T15:41:09.825Z,39.90
2019-04-29T15:45:14.275Z,39.00
2019-04-29T15:49:20.048Z,37.90
2019-04-29T15:53:22.439Z,37.40
2019-04-29T15:57:25.321Z,38.50
2019-04-29T16:01:30.471Z,37.70
2019-04-29T16:10:25.568Z,36.90
2019-04-29T16:14:28.735Z,37.60
2019-04-29T16:18:31.974Z,36.60
2019-04-29T16:22:39.140Z,35.20
2019-04-29T16:26:39.882Z,34.50
2019-04-29T16:30:42.883Z,34.60
2019-04-29T16:34:47.027Z,34.40
2019-04-29T16:38:51.358Z,34.40
2019-04-29T16:43:05.936Z,34.90
2019-04-29T16:47:13.297Z,34.30
2019-04-29T16:51:17.126Z,34.50
2019-04-29T16:55:21.721Z,35.20
2019-04-29T16:59:24.714Z,35.30
2019-04-29T17:03:27.709Z,32.90
2019-04-29T17:07:30.774Z,34.30
2019-04-29T17:11:37.816Z,34.70
2019-04-29T17:15:44.470Z,34.60
2019-04-29T17:19:48.290Z,33.70
2019-04-29T17:23:52.886Z,34.40
2019-04-29T17:28:24.102Z,34.50
2019-04-29T17:32:47.611Z,34.40
2019-04-29T17:35:15.559Z,38.10
2019-04-29T17:36:48.170Z,34.80
2019-04-29T17:40:51.526Z,35.20
2019-04-29T17:45:10.091Z,35.30
2019-04-29T17:49:22.145Z,34.80
2019-04-29T17:53:30.699Z,35.10
2019-04-29T17:57:38.805Z,35.80
2019-04-29T18:01:55.268Z,36.10
2019-04-29T18:06:18.800Z,37.40
2019-04-29T18:10:38.621Z,36.70
2019-04-29T18:14:41.850Z,36.90
2019-04-29T18:19:03.259Z,38.50
2019-04-29T18:23:31.699Z,40.40
2019-04-29T18:27:36.876Z,40.10
2019-04-29T18:31:46.152Z,38.70
2019-04-29T18:35:49.408Z,40.00
2019-04-29T18:39:52.389Z,40.10
2019-04-29T18:43:56.444Z,40.60
2019-04-29T18:48:00.170Z,40.10
2019-04-29T18:52:05.665Z,40.50
2019-04-29T18:56:08.124Z,41.10
2019-04-29T19:00:19.286Z,40.90
2019-04-29T19:04:25.459Z,40.70
2019-04-29T19:08:31.647Z,41.80
2019-04-29T19:12:36.193Z,41.30
2019-04-29T19:16:39.563Z,41.60
2019-04-29T19:20:46.069Z,42.40
2019-04-29T19:24:48.229Z,42.80
2019-04-29T19:28:51.550Z,42.40
2019-04-29T19:33:00.362Z,42.10
2019-04-29T19:37:06.721Z,42.60
2019-04-29T19:41:11.583Z,43.00
2019-04-29T19:45:17.747Z,43.80
2019-04-29T19:49:20.627Z,43.90
2019-04-29T19:53:25.156Z,43.50
2019-04-29T19:57:28.171Z,43.80
2019-04-29T20:01:32.448Z,43.40
2019-04-29T20:05:41.678Z,44.40
2019-04-29T20:09:47.474Z,44.70
2019-04-29T20:14:02.223Z,44.60
2019-04-29T20:18:23.387Z,44.60
2019-04-29T20:22:22.496Z,45.40
2019-04-29T20:26:29.547Z,46.10
2019-04-29T20:30:31.376Z,46.30
2019-04-29T20:34:39.148Z,47.60
2019-04-29T20:38:42.345Z,47.70
2019-04-29T20:42:49.016Z,47.60
2019-04-29T20:47:13.202Z,47.70
2019-04-29T20:50:56.631Z,48.20
2019-04-29T20:55:02.531Z,48.10
2019-04-29T20:59:09.090Z,49.50
2019-04-29T21:03:11.409Z,49.60
2019-04-29T21:07:18.520Z,49.70
2019-04-29T21:11:27.746Z,50.10
2019-04-29T21:15:36.229Z,50.20
2019-04-29T21:19:39.596Z,50.10
2019-04-29T21:23:42.619Z,50.10
2019-04-29T21:27:48.266Z,51.10
2019-04-29T21:31:50.717Z,49.80
2019-04-29T21:36:07.389Z,48.50
2019-04-29T21:40:18.860Z,50.80
2019-04-29T21:44:23.665Z,51.10
2019-04-29T21:48:33.593Z,48.80
2019-04-29T21:52:31.752Z,50.50
2019-04-29T21:56:35.644Z,50.60
2019-04-29T22:00:38.784Z,50.00
2019-04-29T22:04:41.827Z,50.70
2019-04-29T22:08:45.299Z,50.90
2019-04-29T22:12:50.971Z,50.20
2019-04-29T22:16:54.272Z,50.40
2019-04-29T22:20:58.134Z,50.80
2019-04-29T22:25:05.803Z,51.50
2019-04-29T22:29:08.386Z,51.20
2019-04-29T22:33:11.292Z,50.50
2019-04-29T22:37:15.662Z,50.40
2019-04-29T22:41:28.173Z,49.70
2019-04-29T22:45:33.966Z,50.10
2019-04-29T22:49:36.056Z,50.10
2019-04-29T22:53:40.073Z,49.00
2019-04-29T22:57:45.215Z,50.10
2019-04-29T23:01:50.735Z,49.60
2019-04-29T23:06:00.227Z,49.30
2019-04-29T23:10:01.882Z,50.30
2019-04-29T23:14:06.679Z,51.40
2019-04-29T23:18:09.516Z,51.90
2019-04-29T23:22:39.160Z,52.80
2019-04-29T23:26:44.891Z,54.40
2019-04-29T23:30:52.237Z,53.80
2019-04-29T23:34:52.959Z,54.70
2019-04-29T23:38:56.683Z,55.70
2019-04-29T23:42:59.943Z,55.50
2019-04-29T23:47:05.164Z,55.70
2019-04-29T23:51:07.631Z,56.30
2019-04-29T23:55:10.674Z,56.20
2019-04-29T23:59:25.070Z,56.50
